DAOOLXGB

Guest
Details From DAOO - ES SENIA
To LXGB - Gibraltar
Flight Number -
Tags generated
Created
Modified
Stats Distance 241 nm / 447 km
Max Altitude 30,500 ft / 9,296 m
Waypoints 5
Social Downloads 0
Likes 0
Share VATSIM

Download

Looking for another format? Having issues loading an existing format? Contact us
Advertisement - Login to hide

Notes

Basic altitude profile: - Ascent Rate: 2500ft/min - Ascent Speed: 250kts - Cruise Altitude: 35000ft - Cruise Speed: 420kts - Descent Rate: 1500ft/min - Descent Speed: 250kts Options: - Use NATs: yes - Use PACOTS: yes - Use low airways: yes - Use high airways: yes

Route

DAOO LIGUM UL195 GONZA T100 GIVRA LXGB

ID Type Via Altitude Latitude Longitude Leg Dist Tot Dist Heading (true) Name
O DAOO APT - 0 ft / 0 m 35.62386˚ -0.62118˚ - 0 nm - ES SENIA
LIGUM FIX - 24,400 ft / 7,437 m 35.83333˚ -2.00000˚ 68 nm 68 nm 281° / 280° -
GONZA FIX UL195 (AWY-HI) 30,500 ft / 9,296 m 36.20476˚ -2.87694˚ 48 nm 116 nm 298° / 297° -
GIVRA FIX T100 (AWY-LO) 6,500 ft / 1,981 m 35.93083˚ -4.87361˚ 98 nm 214 nm 261° / 260° -
O LXGB APT - 0 ft / 0 m 36.15121˚ -5.34966˚ 26 nm 241 nm 300° / 300° Gibraltar

Altitude Profile

Advertisement - Login to hide

Weather


0- 5 10 15 20 25 30 35+ Temperature / ° C

Clouds and Precipitation
Forecast for 2018-05-23 06:00 UTC. Updated 2 hours ago

Ground ~20,000 ft ~40,000 ft Winds

DAOO

Details ICAO DAOO (ORN)
Name ES SENIA
Region Algeria
Timezone Africa/Algiers (UTC+1.0)
Stats Elevation 295 ft / 90 m (AMSL)
Location 35.623858° -0.621183°
Runways 1
Magnetic Variation 0.198° E

METAR

DAOO 230730Z 06010KT 9999 FEW020 22/12 Q1014

Decode

TAF

TAF DAOO 230500Z 2306/2406 VRB02KT 9999 FEW016 BECMG 2310/2312 04012KT FEW026 TEMPO 2312/2318 06018KT BECMG 2321/2323 22010KT

Decode

Departure Runways

ID Width Length Bearing (true) Bearing (mag) Surface Threshold Offset Overrun Length
07 148 ft / 45 m 10,006 ft / 3,050 m 67.06° 66.86° Asphalt 0 ft / 0 m 328 ft / 100 m
25 148 ft / 45 m 10,006 ft / 3,050 m 247.08° 246.88° Asphalt 196 ft / 60 m 0 ft / 0 m

LXGB

Details ICAO LXGB (GIB)
Name Gibraltar
Region Gibralter
Timezone Europe/Gibraltar (UTC+2.0)
Stats Elevation 15 ft / 5 m (AMSL)
Location 36.151209° -5.349664°
Runways 1
Magnetic Variation 1.073° W

METAR

LXGB 230650Z 06004KT 9999 -RA SCT006 SCT036 BKN110 17/14 Q1015 BECMG FEW007

Decode

TAF

Not found

Destination Runways

ID Width Length Bearing (true) Bearing (mag) Surface Threshold Offset Overrun Length
27 151 ft / 46 m 5,992 ft / 1,826 m 267.56° 268.63° Asphalt 367 ft / 112 m 89 ft / 27 m
9 151 ft / 46 m 5,992 ft / 1,826 m 87.54° 88.61° Asphalt 299 ft / 91 m 52 ft / 16 m

Popular Alternatives